Time;durP1;ratioP1;P1;durP2;ratioP2;P2;SDS_P1;SDS_P2;PMS_P1;PMS_P2;Temp;Humidity;BMP_temperature;BMP_pressure;BME280_temperature;BME280_humidity;BME280_pressure;Samples;Min_cycle;Max_cycle;Signal;HPM_P1;HPM_P2
2023/06/17 00:02:11;;;;;;;6.85;4.18;;;;;;;20.94;40.79;101529.66;5032941;28;20510;-65
2023/06/17 00:04:38;;;;;;;8.57;4.30;;;;;;;20.92;40.77;101531.94;5035013;28;20159;-65
2023/06/17 00:07:06;;;;;;;7.35;4.40;;;;;;;20.89;41.05;101532.59;5018487;28;20077;-64
2023/06/17 00:09:34;;;;;;;6.78;4.05;;;;;;;20.87;41.27;101534.84;5017183;28;20414;-66
2023/06/17 00:12:02;;;;;;;10.55;4.53;;;;;;;20.86;41.35;101528.50;5019283;28;20053;-64
2023/06/17 00:14:30;;;;;;;10.95;4.13;;;;;;;20.81;41.34;101532.22;5036211;28;20049;-65
2023/06/17 00:16:59;;;;;;;9.57;4.65;;;;;;;20.81;41.47;101526.69;5033761;28;20055;-64
2023/06/17 00:19:28;;;;;;;8.93;4.30;;;;;;;20.81;41.25;101526.69;5028369;28;20056;-63
2023/06/17 00:21:55;;;;;;;7.90;4.00;;;;;;;20.80;41.23;101525.03;5014672;28;20050;-64
2023/06/17 00:24:23;;;;;;;10.13;4.00;;;;;;;20.80;41.35;101522.28;5033339;28;20184;-64
2023/06/17 00:26:51;;;;;;;10.90;4.60;;;;;;;20.79;41.64;101522.63;5035600;28;20045;-63
2023/06/17 00:29:19;;;;;;;14.63;4.53;;;;;;;20.74;41.51;101525.53;5034623;28;20421;-64
2023/06/17 00:31:47;;;;;;;8.27;4.32;;;;;;;20.64;41.65;101521.09;5015795;28;20052;-64
2023/06/17 00:34:14;;;;;;;7.45;4.68;;;;;;;20.56;41.68;101516.31;5048630;28;20073;-64
2023/06/17 00:36:42;;;;;;;9.90;4.82;;;;;;;20.48;41.87;101511.53;5032236;28;20061;-65
2023/06/17 00:39:10;;;;;;;8.32;4.47;;;;;;;20.39;42.00;101512.28;5036170;28;20132;-65
2023/06/17 00:41:38;;;;;;;11.15;4.70;;;;;;;20.35;42.04;101519.63;5035172;28;20072;-64
2023/06/17 00:44:06;;;;;;;10.07;4.78;;;;;;;20.34;42.21;101512.44;5033991;28;20396;-65
2023/06/17 00:46:38;;;;;;;9.40;4.90;;;;;;;20.34;42.44;101522.69;5036111;28;20505;-63
2023/06/17 00:49:09;;;;;;;11.63;4.88;;;;;;;20.34;42.29;101519.94;5049093;28;20466;-64
2023/06/17 00:51:37;;;;;;;9.73;4.88;;;;;;;20.34;42.42;101517.97;5034305;28;20046;-64
2023/06/17 00:54:07;;;;;;;9.20;4.18;;;;;;;20.35;42.58;101519.63;5016288;28;20456;-64
2023/06/17 00:56:36;;;;;;;9.20;4.70;;;;;;;20.41;42.74;101512.78;5035427;28;20501;-64
2023/06/17 00:59:05;;;;;;;10.77;4.93;;;;;;;20.46;42.48;101516.56;5017703;28;20113;-65
2023/06/17 01:01:35;;;;;;;12.40;4.88;;;;;;;20.41;42.84;101507.25;5033535;28;20393;-65
2023/06/17 01:04:06;;;;;;;11.70;5.05;;;;;;;20.43;42.78;101506.94;5065789;28;20494;-65
2023/06/17 01:06:52;;;;;;;10.15;4.70;;;;;;;20.41;42.86;101496.19;5031953;28;20417;-65
2023/06/17 01:09:24;;;;;;;9.93;4.80;;;;;;;20.42;42.85;101502.56;5034571;28;20068;-63
2023/06/17 01:11:55;;;;;;;11.55;5.05;;;;;;;20.37;42.96;101509.06;5033542;28;20056;-65
2023/06/17 01:14:22;;;;;;;10.98;4.60;;;;;;;20.34;43.42;101500.56;5013909;28;20068;-65
2023/06/17 01:16:54;;;;;;;9.43;4.88;;;;;;;20.31;43.43;101501.19;5010716;28;20112;-64
2023/06/17 01:19:24;;;;;;;7.57;4.60;;;;;;;20.31;43.35;101499.25;5022913;28;20049;-62
2023/06/17 01:21:55;;;;;;;8.25;4.75;;;;;;;20.32;43.48;101495.31;5033697;28;20045;-64
2023/06/17 01:24:29;;;;;;;7.68;4.68;;;;;;;20.32;43.52;101492.56;5049337;28;20056;-66
2023/06/17 01:26:59;;;;;;;10.93;4.82;;;;;;;20.30;43.69;101488.47;5044401;28;20092;-65
2023/06/17 01:29:32;;;;;;;9.65;4.80;;;;;;;20.26;43.99;101499.38;5032267;28;20041;-64
2023/06/17 01:32:00;;;;;;;8.18;4.50;;;;;;;20.26;44.00;101498.56;5034361;28;20073;-65
2023/06/17 01:34:57;;;;;;;12.25;4.93;;;;;;;20.25;44.13;101505.22;5032600;28;20061;-64
2023/06/17 01:37:49;;;;;;;9.10;4.57;;;;;;;20.18;44.32;101492.66;5045379;28;20100;-65
2023/06/17 01:40:20;;;;;;;8.35;4.70;;;;;;;20.09;44.67;101493.75;5000814;28;20136;-64
2023/06/17 01:42:50;;;;;;;10.88;5.10;;;;;;;20.02;44.90;101487.84;5029994;28;20483;-63
2023/06/17 01:45:19;;;;;;;8.43;5.25;;;;;;;19.97;45.13;101497.09;5003034;28;20137;-65
2023/06/17 01:47:47;;;;;;;13.10;5.85;;;;;;;19.94;45.33;101498.53;5012458;28;20132;-65
2023/06/17 01:50:19;;;;;;;10.25;5.03;;;;;;;19.93;45.58;101496.06;5015588;28;20454;-64
2023/06/17 01:52:47;;;;;;;10.05;5.55;;;;;;;19.90;45.37;101496.72;5020531;28;20050;-64
2023/06/17 01:55:17;;;;;;;7.82;4.97;;;;;;;19.84;45.93;101501.53;5026673;28;20077;-64
2023/06/17 01:57:45;;;;;;;11.05;5.35;;;;;;;19.80;46.09;101495.00;5032328;28;20041;-65
2023/06/17 02:00:15;;;;;;;10.75;5.68;;;;;;;19.75;46.47;101497.91;5020317;28;20046;-64
2023/06/17 02:02:51;;;;;;;9.25;5.65;;;;;;;19.71;46.33;101494.13;5013823;28;20045;-64
2023/06/17 02:05:21;;;;;;;8.07;5.30;;;;;;;19.70;46.55;101498.00;5036371;28;20134;-64
2023/06/17 02:07:48;;;;;;;11.88;6.10;;;;;;;19.71;46.51;101499.66;5000141;28;20111;-64
2023/06/17 02:10:16;;;;;;;9.43;5.45;;;;;;;19.70;46.95;101498.00;5032159;28;20050;-64
2023/06/17 02:12:44;;;;;;;10.98;5.82;;;;;;;19.69;47.07;101490.84;5032885;28;20406;-64
2023/06/17 02:15:12;;;;;;;10.20;5.90;;;;;;;19.65;47.21;101489.81;5030894;28;20060;-64
2023/06/17 02:17:42;;;;;;;11.07;6.00;;;;;;;19.57;47.40;101486.66;5030757;28;20119;-64
2023/06/17 02:20:11;;;;;;;12.32;5.90;;;;;;;19.50;47.61;101483.50;5033248;28;20045;-65
2023/06/17 02:22:39;;;;;;;8.40;5.50;;;;;;;19.48;47.76;101485.78;5032649;28;20085;-65
2023/06/17 02:25:07;;;;;;;9.30;5.75;;;;;;;19.49;47.85;101481.88;5032538;28;20045;-64
2023/06/17 02:27:36;;;;;;;9.60;6.53;;;;;;;19.49;47.90;101487.41;5048805;28;20410;-65
2023/06/17 02:30:04;;;;;;;11.45;6.30;;;;;;;19.51;48.18;101484.34;5015143;28;20064;-64
2023/06/17 02:32:32;;;;;;;10.15;5.65;;;;;;;19.52;48.31;101481.25;5013845;28;20486;-63
2023/06/17 02:35:00;;;;;;;9.52;5.78;;;;;;;19.48;48.48;101479.44;5028611;28;20061;-65
2023/06/17 02:37:28;;;;;;;11.13;6.70;;;;;;;19.45;48.36;101475.34;5040082;28;20553;-64
2023/06/17 02:39:56;;;;;;;9.50;6.65;;;;;;;19.45;48.47;101477.28;5031647;28;20413;-65
2023/06/17 02:42:24;;;;;;;10.93;6.35;;;;;;;19.41;48.74;101474.34;5015797;28;20043;-65
2023/06/17 02:44:52;;;;;;;14.18;7.28;;;;;;;19.38;48.68;101469.44;5031043;28;20034;-63
2023/06/17 02:47:19;;;;;;;11.25;6.50;;;;;;;19.37;48.96;101467.81;5028272;28;20078;-65
2023/06/17 02:49:48;;;;;;;12.07;6.60;;;;;;;19.40;49.02;101467.19;5032973;28;20044;-63
2023/06/17 02:52:15;;;;;;;13.20;6.43;;;;;;;19.41;49.12;101457.78;5017876;28;20107;-65
2023/06/17 02:54:43;;;;;;;10.90;6.60;;;;;;;19.36;49.15;101458.72;5021413;28;20132;-62
2023/06/17 02:57:16;;;;;;;13.52;6.47;;;;;;;19.32;49.51;101457.69;5043845;28;20046;-65
2023/06/17 02:59:44;;;;;;;10.23;6.97;;;;;;;19.30;49.55;101456.38;5019690;28;20437;-64
2023/06/17 03:02:12;;;;;;;10.50;6.60;;;;;;;19.29;49.76;101460.25;5036850;28;20099;-63
2023/06/17 03:04:40;;;;;;;12.70;7.43;;;;;;;19.25;49.92;101464.78;5035361;28;20050;-64
2023/06/17 03:07:11;;;;;;;12.15;6.70;;;;;;;19.22;49.99;101452.41;5029841;28;20072;-63
2023/06/17 03:09:39;;;;;;;9.38;6.70;;;;;;;19.23;50.02;101453.22;5037028;28;20510;-61
2023/06/17 03:12:07;;;;;;;13.50;6.85;;;;;;;19.25;50.08;101459.25;5046297;28;20056;-65
2023/06/17 03:14:35;;;;;;;10.95;7.13;;;;;;;19.26;50.10;101458.09;5017444;28;20048;-63
2023/06/17 03:17:11;;;;;;;11.55;7.10;;;;;;;19.29;49.91;101457.47;5041636;28;20057;-63
2023/06/17 03:19:42;;;;;;;13.52;6.88;;;;;;;19.31;49.91;101458.81;5049755;28;20056;-58
2023/06/17 03:22:10;;;;;;;11.75;6.82;;;;;;;19.29;50.42;101460.25;5033643;28;20066;-62
2023/06/17 03:24:42;;;;;;;11.38;7.10;;;;;;;19.21;50.71;101456.28;5034642;28;20048;-64
2023/06/17 03:27:11;;;;;;;13.13;7.90;;;;;;;19.21;51.09;101461.00;5031161;28;20422;-64
2023/06/17 03:29:39;;;;;;;12.77;8.00;;;;;;;19.12;51.36;101456.22;5018949;28;20045;-64
2023/06/17 03:32:08;;;;;;;13.65;8.15;;;;;;;19.05;51.71;101458.56;5003101;28;20436;-65
2023/06/17 03:34:36;;;;;;;16.95;8.48;;;;;;;18.94;52.21;101460.72;5035129;28;20096;-65
2023/06/17 03:37:08;;;;;;;13.40;7.70;;;;;;;18.83;52.47;101459.34;5033856;28;20107;-65
2023/06/17 03:39:36;;;;;;;14.02;7.93;;;;;;;18.82;52.74;101454.91;5033718;28;20045;-65
2023/06/17 03:42:05;;;;;;;11.73;7.47;;;;;;;18.87;52.43;101454.00;5051863;28;20049;-65
2023/06/17 03:44:32;;;;;;;13.32;7.50;;;;;;;18.92;52.36;101448.34;5035742;28;20045;-64
2023/06/17 03:47:00;;;;;;;12.45;7.40;;;;;;;18.97;52.28;101447.44;5028107;28;20053;-64
2023/06/17 03:49:28;;;;;;;12.15;6.88;;;;;;;19.00;52.09;101450.41;5045606;28;20057;-65
2023/06/17 03:51:56;;;;;;;12.80;7.25;;;;;;;18.99;52.31;101450.72;5035109;28;20049;-64
2023/06/17 03:54:24;;;;;;;12.18;7.82;;;;;;;18.93;52.37;101450.81;5035263;28;20083;-64
2023/06/17 03:56:51;;;;;;;11.80;7.88;;;;;;;18.89;52.86;101452.56;5018390;28;20049;-65
2023/06/17 03:59:19;;;;;;;13.60;6.95;;;;;;;18.84;53.23;101457.38;5034313;28;20080;-65
2023/06/17 04:01:47;;;;;;;12.23;7.50;;;;;;;18.79;53.87;101463.00;5050120;28;20449;-64
2023/06/17 04:04:15;;;;;;;10.60;6.60;;;;;;;18.76;54.43;101452.53;5049324;28;20049;-65
2023/06/17 04:06:43;;;;;;;12.23;6.85;;;;;;;18.73;54.85;101454.78;5041799;28;20054;-65
2023/06/17 04:09:11;;;;;;;10.95;7.15;;;;;;;18.77;55.06;101459.75;5031917;28;20042;-65
2023/06/17 04:11:40;;;;;;;12.52;7.57;;;;;;;18.83;54.90;101452.97;5032798;28;20478;-64
2023/06/17 04:14:10;;;;;;;12.13;8.02;;;;;;;18.84;55.52;101460.94;5017064;28;20053;-64
2023/06/17 04:16:41;;;;;;;12.63;8.05;;;;;;;18.85;55.98;101456.25;5018246;28;20048;-67
2023/06/17 04:19:13;;;;;;;12.00;7.90;;;;;;;18.82;56.36;101465.16;5036705;28;20060;-66
2023/06/17 04:21:41;;;;;;;9.88;7.20;;;;;;;18.82;56.39;101457.69;5034126;28;20064;-66
2023/06/17 04:24:09;;;;;;;14.52;7.88;;;;;;;18.83;56.70;101452.97;5033796;28;20076;-66
2023/06/17 04:26:37;;;;;;;12.27;8.20;;;;;;;18.84;56.76;101466.47;5025015;28;20133;-66
2023/06/17 04:29:05;;;;;;;10.57;7.53;;;;;;;18.77;57.75;101463.31;5016047;28;20087;-66
2023/06/17 04:31:35;;;;;;;14.35;8.77;;;;;;;18.67;58.56;101464.31;5034265;28;20371;-67
2023/06/17 04:34:05;;;;;;;12.15;6.82;;;;;;;18.57;58.97;101453.47;5033813;28;20037;-66
2023/06/17 04:36:34;;;;;;;11.23;7.15;;;;;;;18.57;59.32;101456.25;5033253;28;20107;-67
2023/06/17 04:39:03;;;;;;;13.40;7.18;;;;;;;18.64;59.36;101453.03;5036356;28;20060;-66
2023/06/17 04:41:32;;;;;;;13.35;7.95;;;;;;;18.70;59.63;101457.34;5050239;28;20045;-66
2023/06/17 04:44:01;;;;;;;11.02;7.90;;;;;;;18.76;59.79;101452.53;5034385;28;20129;-66
2023/06/17 04:46:29;;;;;;;10.95;7.25;;;;;;;18.80;59.59;101454.41;5022368;28;20085;-67
2023/06/17 04:48:58;;;;;;;10.77;7.35;;;;;;;18.80;59.86;101453.59;5006970;28;20482;-66
2023/06/17 04:51:26;;;;;;;12.52;7.18;;;;;;;18.76;60.87;101452.53;5033525;28;20421;-66
2023/06/17 04:53:54;;;;;;;11.27;6.93;;;;;;;18.76;60.62;101458.94;5034641;28;20049;-67
2023/06/17 04:56:21;;;;;;;12.63;7.93;;;;;;;18.79;60.95;101452.78;5021970;28;20121;-67
2023/06/17 04:58:50;;;;;;;11.27;6.75;;;;;;;18.83;61.12;101458.50;5048280;28;20056;-68
2023/06/17 05:01:17;;;;;;;13.73;6.95;;;;;;;18.91;60.77;101455.84;5013167;28;20057;-65
2023/06/17 05:03:45;;;;;;;11.15;7.88;;;;;;;18.97;60.96;101462.06;5033499;28;20107;-65
2023/06/17 05:06:13;;;;;;;11.45;7.20;;;;;;;18.97;61.13;101453.78;5032909;28;20502;-65
2023/06/17 05:08:41;;;;;;;13.20;8.07;;;;;;;18.97;61.34;101464.00;5036723;28;20100;-65
2023/06/17 05:11:10;;;;;;;12.15;9.18;;;;;;;18.82;62.57;101459.63;5033485;28;20057;-65
2023/06/17 05:13:40;;;;;;;11.48;8.00;;;;;;;18.78;62.97;101462.16;5033951;28;20456;-65
2023/06/17 05:16:09;;;;;;;12.35;8.15;;;;;;;18.74;63.17;101461.94;5024011;28;20099;-65
2023/06/17 05:18:39;;;;;;;12.07;8.82;;;;;;;18.80;63.00;101462.69;5025875;28;20170;-65
2023/06/17 05:21:07;;;;;;;13.77;7.18;;;;;;;18.84;62.88;101460.94;5012549;28;20406;-66
2023/06/17 05:23:36;;;;;;;12.77;7.78;;;;;;;18.91;62.99;101468.84;5021032;28;20068;-65
2023/06/17 05:26:04;;;;;;;10.18;7.53;;;;;;;18.96;63.26;101468.72;5015977;28;20053;-65
2023/06/17 05:28:32;;;;;;;12.02;7.55;;;;;;;18.93;63.49;101475.69;5032499;28;20449;-64
2023/06/17 05:31:00;;;;;;;14.90;8.20;;;;;;;18.90;64.06;101470.75;5032263;28;20120;-64
2023/06/17 05:33:29;;;;;;;13.95;7.75;;;;;;;18.89;64.42;101468.31;5032700;28;20084;-66
2023/06/17 05:36:00;;;;;;;15.15;9.38;;;;;;;18.85;64.90;101462.56;5023927;28;20068;-66
2023/06/17 05:38:30;;;;;;;12.77;7.82;;;;;;;18.78;65.42;101462.16;5026568;28;20099;-65
2023/06/17 05:40:58;;;;;;;10.82;7.18;;;;;;;18.84;65.25;101471.19;5029471;28;20053;-64
2023/06/17 05:43:28;;;;;;;12.35;8.68;;;;;;;18.89;65.50;101463.59;5045588;28;20482;-67
2023/06/17 05:45:57;;;;;;;12.57;8.13;;;;;;;18.91;65.63;101460.53;5012757;28;20045;-66
2023/06/17 05:48:25;;;;;;;10.13;7.35;;;;;;;18.97;65.33;101467.56;5033147;28;20088;-67
2023/06/17 05:50:54;;;;;;;16.25;7.70;;;;;;;18.98;65.78;101463.72;5032756;28;20072;-68
2023/06/17 05:53:21;;;;;;;13.65;8.27;;;;;;;19.00;65.96;101466.97;5049952;28;20120;-69
2023/06/17 05:55:50;;;;;;;12.73;7.28;;;;;;;19.04;66.32;101465.22;5038342;28;20037;-67
2023/06/17 05:58:18;;;;;;;11.32;7.47;;;;;;;19.07;66.22;101467.38;5025939;28;20034;-68
2023/06/17 06:01:02;;;;;;;13.02;8.50;;;;;;;19.14;65.93;101467.75;5033164;28;20393;-69
2023/06/17 06:03:29;;;;;;;13.32;8.65;;;;;;;19.11;65.66;101471.13;5033153;28;20099;-68
2023/06/17 06:05:58;;;;;;;14.00;8.55;;;;;;;19.08;65.75;101465.44;5015693;28;20053;-66
2023/06/17 06:08:26;;;;;;;9.18;6.68;;;;;;;19.12;65.59;101471.94;5032140;28;20073;-68
2023/06/17 06:10:53;;;;;;;10.98;6.82;;;;;;;19.20;65.42;101474.00;5032446;28;20483;-67
2023/06/17 06:13:22;;;;;;;10.38;7.10;;;;;;;19.21;64.42;101472.03;5030616;28;20397;-67
2023/06/17 06:15:51;;;;;;;12.75;7.25;;;;;;;19.16;64.97;101473.78;5010225;28;20050;-67
2023/06/17 06:18:18;;;;;;;11.65;7.50;;;;;;;19.13;65.19;101468.88;5045776;28;20050;-68
2023/06/17 06:20:46;;;;;;;12.20;7.70;;;;;;;19.14;65.00;101473.28;5045108;28;20046;-67
2023/06/17 06:23:14;;;;;;;12.40;6.85;;;;;;;19.18;64.73;101475.44;5035161;28;20045;-67
2023/06/17 06:25:41;;;;;;;12.82;6.63;;;;;;;19.21;64.42;101481.13;5034317;28;20041;-67
2023/06/17 06:28:09;;;;;;;12.40;6.25;;;;;;;19.26;63.96;101471.91;5011728;28;20108;-66
2023/06/17 06:30:37;;;;;;;12.27;6.88;;;;;;;19.31;62.84;101474.56;5034335;28;20049;-68
2023/06/17 06:33:05;;;;;;;8.93;5.53;;;;;;;19.37;62.30;101471.38;5035268;28;20087;-67
2023/06/17 06:35:33;;;;;;;10.60;6.22;;;;;;;19.47;62.11;101473.09;5048794;28;20485;-68
2023/06/17 06:38:02;;;;;;;12.43;7.22;;;;;;;19.54;60.48;101473.47;4992786;28;20055;-69
2023/06/17 06:40:29;;;;;;;15.02;7.20;;;;;;;19.60;59.85;101476.91;5035909;28;20128;-67
2023/06/17 06:42:57;;;;;;;10.57;7.00;;;;;;;19.65;58.48;101475.97;5017090;28;20048;-68
2023/06/17 06:45:26;;;;;;;12.27;7.00;;;;;;;19.64;60.62;101477.94;5019219;28;20049;-69
2023/06/17 06:47:55;;;;;;;17.95;7.40;;;;;;;19.64;59.05;101482.66;5049063;28;20053;-67
2023/06/17 06:50:23;;;;;;;11.50;6.32;;;;;;;19.62;57.16;101474.66;5036696;28;20490;-67
2023/06/17 06:52:53;;;;;;;11.40;6.85;;;;;;;19.65;55.18;101473.22;5035229;28;20053;-68
2023/06/17 06:55:22;;;;;;;10.45;6.25;;;;;;;19.66;54.65;101475.69;5037099;28;20042;-68
2023/06/17 06:57:55;;;;;;;8.13;5.60;;;;;;;19.67;52.68;101473.72;5021563;28;20152;-68
2023/06/17 07:00:24;;;;;;;11.38;6.75;;;;;;;19.70;52.82;101478.66;5053397;28;20049;-69
2023/06/17 07:02:51;;;;;;;12.93;6.07;;;;;;;19.71;52.74;101472.00;5037692;28;20052;-68
2023/06/17 07:05:22;;;;;;;12.15;5.30;;;;;;;19.77;52.76;101479.03;5052714;28;20079;-68
2023/06/17 07:07:54;;;;;;;10.30;5.22;;;;;;;19.84;52.46;101475.84;5020083;28;20084;-69
2023/06/17 07:10:22;;;;;;;8.25;5.60;;;;;;;19.89;52.94;101471.00;5053112;28;20084;-67
2023/06/17 07:12:50;;;;;;;12.65;6.38;;;;;;;19.95;51.96;101472.50;5052069;28;20076;-66
2023/06/17 07:15:19;;;;;;;10.25;5.95;;;;;;;19.98;50.55;101468.28;5019824;28;20060;-66
2023/06/17 07:17:49;;;;;;;8.45;5.45;;;;;;;19.99;50.78;101467.97;5037059;28;20052;-67
2023/06/17 07:20:17;;;;;;;11.10;5.78;;;;;;;20.02;49.41;101469.28;5017776;28;20106;-67
2023/06/17 07:22:46;;;;;;;9.25;5.28;;;;;;;20.04;49.19;101468.97;5031319;28;20132;-66
2023/06/17 07:25:14;;;;;;;7.60;4.70;;;;;;;20.10;48.20;101473.25;5038307;28;20042;-66
2023/06/17 07:27:41;;;;;;;10.80;4.85;;;;;;;20.16;46.59;101461.72;5020808;28;20054;-65
2023/06/17 07:30:09;;;;;;;12.38;5.18;;;;;;;20.24;45.97;101467.63;5052809;28;20053;-60
2023/06/17 07:32:37;;;;;;;9.25;5.22;;;;;;;20.28;46.37;101469.44;5052221;28;20053;-64
2023/06/17 07:35:05;;;;;;;8.73;5.07;;;;;;;20.32;45.53;101464.06;5069164;28;20062;-65
2023/06/17 07:37:33;;;;;;;9.55;5.03;;;;;;;20.37;46.23;101469.47;5038922;28;20056;-66
2023/06/17 07:40:05;;;;;;;6.95;4.30;;;;;;;20.39;47.08;101465.25;5053663;28;20075;-57
2023/06/17 07:42:33;;;;;;;9.30;4.28;;;;;;;20.42;49.06;101466.59;5053584;28;20088;-57
2023/06/17 07:45:00;;;;;;;7.50;4.57;;;;;;;20.43;47.50;101466.25;5049547;28;20457;-65
2023/06/17 07:47:28;;;;;;;9.57;4.60;;;;;;;20.45;45.66;101463.16;5000302;28;20081;-67
2023/06/17 07:49:56;;;;;;;7.80;4.63;;;;;;;20.45;46.06;101463.16;5019879;28;20049;-64
2023/06/17 07:52:24;;;;;;;8.57;4.95;;;;;;;20.45;46.05;101465.13;5034506;28;20375;-67
2023/06/17 07:54:52;;;;;;;10.45;5.15;;;;;;;20.46;45.49;101463.97;5036313;28;20081;-67
2023/06/17 07:57:20;;;;;;;7.47;4.57;;;;;;;20.47;45.17;101465.59;5033650;28;20144;-66
2023/06/17 07:59:48;;;;;;;7.18;4.50;;;;;;;20.49;44.13;101457.78;5032039;28;20116;-67
2023/06/17 08:02:16;;;;;;;8.70;5.13;;;;;;;20.53;43.88;101458.78;5035349;28;20041;-66
2023/06/17 08:04:45;;;;;;;7.15;4.25;;;;;;;20.54;44.64;101452.09;5034407;28;20038;-66
2023/06/17 08:07:13;;;;;;;11.88;5.10;;;;;;;;;;5034664;28;20144;-66
2023/06/17 08:09:40;;;;;;;9.88;5.60;;;;;;;20.63;45.77;101459.34;5035383;28;20129;-67
2023/06/17 08:12:08;;;;;;;10.32;5.30;;;;;;;20.70;45.72;101464.41;5035229;28;20045;-66
2023/06/17 08:14:36;;;;;;;8.52;5.30;;;;;;;20.74;45.47;101450.75;5035275;28;20544;-67
2023/06/17 08:17:04;;;;;;;10.23;5.65;;;;;;;20.75;45.62;101453.19;5036151;28;20068;-67
2023/06/17 08:19:33;;;;;;;8.55;5.13;;;;;;;20.80;44.37;101446.69;5043033;28;20139;-65
2023/06/17 08:22:00;;;;;;;9.35;5.47;;;;;;;20.88;44.33;101447.84;5035738;28;20049;-67
2023/06/17 08:24:29;;;;;;;13.93;5.90;;;;;;;20.92;44.75;101444.09;5035371;28;20050;-67
2023/06/17 08:26:56;;;;;;;8.45;4.85;;;;;;;20.96;44.86;101442.31;5033320;28;20124;-66
2023/06/17 08:29:25;;;;;;;10.30;5.07;;;;;;;20.98;45.01;101447.53;5034089;28;20533;-66
2023/06/17 08:31:53;;;;;;;10.65;5.68;;;;;;;20.99;45.13;101446.41;5033914;28;20076;-66
2023/06/17 08:34:21;;;;;;;9.15;5.45;;;;;;;21.00;44.26;101440.53;5015490;28;20084;-68
2023/06/17 08:36:53;;;;;;;9.85;5.28;;;;;;;21.01;43.55;101436.63;5029212;28;20062;-66
2023/06/17 08:39:21;;;;;;;7.93;4.90;;;;;;;21.05;43.80;101436.81;5032561;28;20079;-68
2023/06/17 08:41:49;;;;;;;7.95;4.75;;;;;;;21.10;42.77;101444.16;5031961;28;20156;-66
2023/06/17 08:44:21;;;;;;;9.80;4.95;;;;;;;21.15;42.39;101442.03;5029794;28;20049;-66
2023/06/17 08:46:51;;;;;;;9.82;5.00;;;;;;;21.18;42.00;101438.59;5033599;28;20080;-67
2023/06/17 08:49:19;;;;;;;7.18;4.82;;;;;;;21.19;41.76;101448.56;5016102;28;20121;-66
2023/06/17 08:51:50;;;;;;;7.95;4.43;;;;;;;21.21;41.56;101431.59;5016416;28;20408;-66
2023/06/17 08:54:20;;;;;;;11.77;4.90;;;;;;;21.25;41.34;101430.59;5032339;28;20103;-66
2023/06/17 08:56:48;;;;;;;7.70;5.00;;;;;;;21.31;41.56;101433.22;5033452;28;20410;-66
2023/06/17 08:59:16;;;;;;;10.07;5.32;;;;;;;21.34;41.23;101432.59;5030158;28;20045;-66
2023/06/17 09:01:44;;;;;;;8.95;5.15;;;;;;;21.38;41.64;101430.78;5019390;28;20081;-65
2023/06/17 09:04:12;;;;;;;8.70;5.20;;;;;;;21.42;42.04;101434.56;5028344;28;20053;-66
2023/06/17 09:06:40;;;;;;;10.20;5.47;;;;;;;21.48;41.62;101436.84;5023458;28;20062;-66
2023/06/17 09:09:08;;;;;;;12.25;5.15;;;;;;;21.55;41.77;101439.13;5025932;28;20112;-65
2023/06/17 09:11:36;;;;;;;10.38;5.40;;;;;;;21.62;40.35;101439.44;5033638;28;20041;-67
2023/06/17 09:14:04;;;;;;;12.23;5.57;;;;;;;21.67;40.66;101443.97;5031496;28;20068;-67
2023/06/17 09:16:35;;;;;;;12.60;5.97;;;;;;;21.70;40.95;101440.56;5039433;28;20052;-67
2023/06/17 09:19:05;;;;;;;11.93;6.32;;;;;;;21.74;41.00;101440.72;5022213;28;20074;-66
2023/06/17 09:21:33;;;;;;;13.48;6.07;;;;;;;21.76;41.29;101441.22;5026009;28;20045;-66
2023/06/17 09:24:11;;;;;;;11.38;5.75;;;;;;;21.77;41.50;101435.34;5032742;28;20075;-66
2023/06/17 09:26:43;;;;;;;11.80;5.50;;;;;;;21.84;40.80;101434.81;5030405;28;20083;-66
2023/06/17 09:29:12;;;;;;;10.07;5.75;;;;;;;21.89;39.37;101437.44;5039157;28;20053;-66
2023/06/17 09:31:53;;;;;;;9.10;5.45;;;;;;;21.94;39.54;101434.50;5031912;28;20076;-66
2023/06/17 09:34:22;;;;;;;11.15;5.43;;;;;;;22.03;39.18;101438.06;5040441;28;20051;-67
2023/06/17 09:37:00;;;;;;;10.27;5.82;;;;;;;22.05;38.38;101434.94;5014827;28;20083;-66
2023/06/17 09:39:32;;;;;;;11.45;6.00;;;;;;;22.09;38.72;101430.38;5008570;28;20080;-67
2023/06/17 09:42:12;;;;;;;8.70;5.22;;;;;;;22.13;38.76;101434.13;4995712;28;20046;-67
2023/06/17 09:44:40;;;;;;;11.25;6.05;;;;;;;22.16;39.57;101435.41;5015920;28;20486;-67
2023/06/17 09:47:11;;;;;;;11.20;6.45;;;;;;;22.19;39.65;101430.00;5027846;28;20494;-67
2023/06/17 09:49:39;;;;;;;12.43;6.18;;;;;;;22.23;38.94;101430.19;5032600;28;20453;-68
2023/06/17 09:52:09;;;;;;;11.10;6.25;;;;;;;22.30;38.68;101430.50;5011702;28;20064;-68
2023/06/17 09:54:37;;;;;;;12.80;5.80;;;;;;;22.33;38.67;101430.63;5028432;28;20038;-67
2023/06/17 09:57:09;;;;;;;10.70;5.65;;;;;;;22.37;38.78;101432.72;5029261;28;20076;-66
2023/06/17 09:59:37;;;;;;;11.38;6.40;;;;;;;22.38;38.38;101435.19;5011873;28;20057;-66
2023/06/17 10:02:05;;;;;;;11.80;5.72;;;;;;;22.36;37.58;101434.69;5031417;28;20101;-66
2023/06/17 10:04:33;;;;;;;12.05;5.00;;;;;;;22.40;37.57;101432.06;5009069;28;20101;-67
2023/06/17 10:07:06;;;;;;;13.30;6.95;;;;;;;22.51;37.83;101433.31;5027241;28;20429;-66
2023/06/17 10:09:34;;;;;;;11.60;6.20;;;;;;;22.61;37.31;101423.78;5023745;28;20390;-67
2023/06/17 10:12:03;;;;;;;10.73;5.72;;;;;;;22.65;37.29;101424.75;5032596;28;20120;-67
2023/06/17 10:14:33;;;;;;;13.15;6.57;;;;;;;22.61;37.75;101423.78;5015257;28;20068;-67
2023/06/17 10:17:03;;;;;;;13.90;6.25;;;;;;;22.62;37.24;101429.00;5028652;28;20049;-67
2023/06/17 10:19:43;;;;;;;13.60;6.13;;;;;;;22.68;36.75;101418.50;4697707;28;10000383;-67
2023/06/17 10:22:13;;;;;;;15.48;6.50;;;;;;;22.73;36.86;101424.72;5008887;28;20261;-67
2023/06/17 10:24:41;;;;;;;9.50;5.60;;;;;;;22.78;36.81;101423.72;5023988;28;20119;-67
2023/06/17 10:27:09;;;;;;;9.73;5.78;;;;;;;22.82;36.31;101424.63;5028801;28;20050;-67
2023/06/17 10:29:43;;;;;;;10.82;5.45;;;;;;;22.85;36.55;101418.44;5029409;28;20621;-66
2023/06/17 10:32:22;;;;;;;12.25;6.00;;;;;;;22.85;37.53;101421.22;5036915;28;20061;-67
2023/06/17 10:35:23;;;;;;;11.60;5.28;;;;;;;22.94;36.17;101421.13;5011538;28;20088;-67
2023/06/17 10:37:51;;;;;;;8.85;5.43;;;;;;;23.01;36.18;101420.63;5038277;28;20518;-68
2023/06/17 10:40:23;;;;;;;9.25;5.25;;;;;;;23.09;34.94;101408.63;5028131;28;20042;-67
2023/06/17 10:43:00;;;;;;;9.82;5.35;;;;;;;23.14;35.46;101406.47;5029827;28;20564;-67
2023/06/17 10:45:31;;;;;;;9.45;5.00;;;;;;;23.18;34.87;101407.41;5029698;28;20494;-66
2023/06/17 10:48:24;;;;;;;9.63;5.22;;;;;;;23.20;34.65;101403.47;5008978;28;20061;-67
2023/06/17 10:50:57;;;;;;;7.55;4.45;;;;;;;23.16;33.81;101408.91;5022669;28;20093;-67
2023/06/17 10:53:35;;;;;;;10.60;4.65;;;;;;;23.21;33.40;101397.59;5028477;28;20046;-68
2023/06/17 10:56:04;;;;;;;9.73;4.80;;;;;;;23.18;33.72;101401.03;5027506;28;20136;-67
2023/06/17 10:58:35;;;;;;;8.48;4.60;;;;;;;23.17;32.22;101402.19;5039536;28;20046;-67
2023/06/17 11:01:11;;;;;;;9.88;4.47;;;;;;;23.18;31.74;101395.47;5027876;28;20049;-67
2023/06/17 11:03:39;;;;;;;9.43;4.65;;;;;;;23.23;32.50;101395.25;5013376;28;20136;-67
2023/06/17 11:06:08;;;;;;;12.38;4.85;;;;;;;23.29;32.08;101385.56;5028609;28;20064;-67
2023/06/17 11:08:37;;;;;;;9.85;4.63;;;;;;;23.38;31.68;101386.31;5031632;28;20080;-66
2023/06/17 11:11:14;;;;;;;9.88;4.88;;;;;;;23.42;33.17;101380.88;5033286;28;20065;-68
2023/06/17 11:13:43;;;;;;;11.52;5.10;;;;;;;23.45;33.20;101377.41;5028896;28;20041;-67
2023/06/17 11:16:11;;;;;;;8.18;4.70;;;;;;;23.53;32.91;101375.69;5032164;28;20079;-66
2023/06/17 11:18:42;;;;;;;10.95;6.32;;;;;;;23.57;31.82;101376.63;5015461;28;20070;-68
2023/06/17 11:21:10;;;;;;;10.43;4.85;;;;;;;23.52;32.03;101374.91;5026764;28;20111;-68
2023/06/17 11:23:41;;;;;;;15.00;5.40;;;;;;;23.56;32.63;101372.22;5020325;28;20073;-68
2023/06/17 11:26:09;;;;;;;7.00;4.40;;;;;;;23.79;29.83;101370.69;5016211;28;20128;-67
2023/06/17 11:28:36;;;;;;;8.35;4.38;;;;;;;23.84;29.76;101369.66;5032133;28;20486;-66
2023/06/17 11:31:07;;;;;;;11.05;5.38;;;;;;;23.81;31.00;101370.34;5033393;28;20053;-67